메인 페이지
METAR-TAF:

METAR-TAF

공항 :

마데이라 공항

푼샬, 마데이라 제도, 포르투갈

위도: 32-41-52N, 경도: 016-46-28W, 고도: 59m

현재 날씨관측

예보는 39분 전, 00:30시(UTC)에 발표되었습니다.
15kt북북서풍과 북동풍을 오가는
온도 22°C
습도 69%
기압 1021 hPa
시정 10km 이상
고도 1600ft 상공 구름 조금

METAR: LPMA 150030Z 01015KT 330V040 9999 FEW016 22/16 Q1021

시각: 02:09 (01:09 UTC)

예보

예보는 2 시간 9분 전, 23:00시(UTC)에 발표되었습니다.
예보 대상 시간: 15일 00시부터 15일 24시까지 (UTC)
북북동18kt
시정 10km 이상
고도 1600ft 상공 구름 보통
확률 40% :
일시적
15일 00시부터 15일 24시까지 (UTC)
북북동20kt, 순간 최대 풍속 32kt

TAF: LPMA 142300Z 1500/1524 03018KT 9999 SCT016 PROB40 TEMPO 1500/1524 03020G32KT

4,000개 이상의 공항 관측 자료 및 예보 (METAR 및 TAF 보고).

지도상에서 검색 가능한 기상관측소가 노란 점과 빨간 점으로 표시되어 있습니다.

기상관측소 명을 보려면 표시 위로 마우스를 이동하세요.

날씨 관측과 예보를 보려면 클릭하세요.

지도 변경 : 확대하려면 엑스 표시가 있는 녹색 버튼, 축소하려면 빼기 표시가 있는 녹색 버튼, 다음 페이지의 지도를 보려면 녹색 화살표를 클릭하세요.


METAR-TAF: